sensor_id;sensor_type;location;lat;lon;timestamp;temperature;humidity
8261;DHT22;64115;50.170;8.242;2023-03-01T00:00:19;-3.40;99.90
8261;DHT22;64115;50.170;8.242;2023-03-01T00:02:46;-3.50;99.90
8261;DHT22;64115;50.170;8.242;2023-03-01T00:05:15;-3.50;99.90
8261;DHT22;64115;50.170;8.242;2023-03-01T00:07:41;-3.60;99.90
8261;DHT22;64115;50.170;8.242;2023-03-01T00:10:10;-3.60;99.90
8261;DHT22;64115;50.170;8.242;2023-03-01T00:12:37;-3.70;99.90
8261;DHT22;64115;50.170;8.242;2023-03-01T00:15:05;-3.60;99.90
8261;DHT22;64115;50.170;8.242;2023-03-01T00:17:32;-3.60;99.90
8261;DHT22;64115;50.170;8.242;2023-03-01T00:19:59;-3.60;99.90
8261;DHT22;64115;50.170;8.242;2023-03-01T00:22:28;-3.60;99.90
8261;DHT22;64115;50.170;8.242;2023-03-01T00:24:55;-3.70;99.90
8261;DHT22;64115;50.170;8.242;2023-03-01T00:27:21;-3.70;99.90
8261;DHT22;64115;50.170;8.242;2023-03-01T00:29:48;-3.80;99.90
8261;DHT22;64115;50.170;8.242;2023-03-01T00:32:15;-3.80;99.90
8261;DHT22;64115;50.170;8.242;2023-03-01T00:34:43;-3.80;99.90
8261;DHT22;64115;50.170;8.242;2023-03-01T00:37:20;-3.80;99.90
8261;DHT22;64115;50.170;8.242;2023-03-01T00:39:48;-3.80;99.90
8261;DHT22;64115;50.170;8.242;2023-03-01T00:42:16;-3.80;99.90
8261;DHT22;64115;50.170;8.242;2023-03-01T00:44:43;-3.80;99.90
8261;DHT22;64115;50.170;8.242;2023-03-01T00:47:10;-3.90;99.90
8261;DHT22;64115;50.170;8.242;2023-03-01T00:49:37;-3.80;99.90
8261;DHT22;64115;50.170;8.242;2023-03-01T00:52:04;-3.80;99.90
8261;DHT22;64115;50.170;8.242;2023-03-01T00:54:31;-3.80;99.90
8261;DHT22;64115;50.170;8.242;2023-03-01T00:57:00;-3.80;99.90
8261;DHT22;64115;50.170;8.242;2023-03-01T00:59:27;-3.80;99.90
8261;DHT22;64115;50.170;8.242;2023-03-01T01:01:54;-3.80;99.90
8261;DHT22;64115;50.170;8.242;2023-03-01T01:04:21;-3.80;99.90
8261;DHT22;64115;50.170;8.242;2023-03-01T01:06:48;-3.80;99.90
8261;DHT22;64115;50.170;8.242;2023-03-01T01:09:17;-3.80;99.90
8261;DHT22;64115;50.170;8.242;2023-03-01T01:11:44;-3.80;99.90
8261;DHT22;64115;50.170;8.242;2023-03-01T01:14:13;-3.90;99.90
8261;DHT22;64115;50.170;8.242;2023-03-01T01:16:40;-3.80;99.90
8261;DHT22;64115;50.170;8.242;2023-03-01T01:19:07;-3.80;99.90
8261;DHT22;64115;50.170;8.242;2023-03-01T01:21:35;-3.70;99.90
8261;DHT22;64115;50.170;8.242;2023-03-01T01:24:03;-3.70;99.90
8261;DHT22;64115;50.170;8.242;2023-03-01T01:26:33;-3.70;99.90
8261;DHT22;64115;50.170;8.242;2023-03-01T01:29:02;-3.70;99.90
8261;DHT22;64115;50.170;8.242;2023-03-01T01:31:32;-3.60;99.90
8261;DHT22;64115;50.170;8.242;2023-03-01T01:34:00;-3.70;99.90
8261;DHT22;64115;50.170;8.242;2023-03-01T01:36:31;-3.60;99.90
8261;DHT22;64115;50.170;8.242;2023-03-01T01:38:58;-3.60;99.90
8261;DHT22;64115;50.170;8.242;2023-03-01T01:41:26;-3.60;99.90
8261;DHT22;64115;50.170;8.242;2023-03-01T01:44:13;-3.60;99.90
8261;DHT22;64115;50.170;8.242;2023-03-01T01:46:44;-3.70;99.90
8261;DHT22;64115;50.170;8.242;2023-03-01T01:49:19;-3.70;99.90
8261;DHT22;64115;50.170;8.242;2023-03-01T01:51:48;-3.70;99.90
8261;DHT22;64115;50.170;8.242;2023-03-01T01:54:19;-3.60;99.90
8261;DHT22;64115;50.170;8.242;2023-03-01T01:56:51;-3.60;99.90
8261;DHT22;64115;50.170;8.242;2023-03-01T01:59:19;-3.60;99.90
8261;DHT22;64115;50.170;8.242;2023-03-01T02:01:51;-3.60;99.90
8261;DHT22;64115;50.170;8.242;2023-03-01T02:04:19;-3.60;99.90
8261;DHT22;64115;50.170;8.242;2023-03-01T02:06:51;-3.70;99.90
8261;DHT22;64115;50.170;8.242;2023-03-01T02:09:20;-3.60;99.90
8261;DHT22;64115;50.170;8.242;2023-03-01T02:11:49;-3.50;99.90
8261;DHT22;64115;50.170;8.242;2023-03-01T02:14:17;-3.50;99.90
8261;DHT22;64115;50.170;8.242;2023-03-01T02:16:44;-3.60;99.90
8261;DHT22;64115;50.170;8.242;2023-03-01T02:19:26;-3.70;99.90
8261;DHT22;64115;50.170;8.242;2023-03-01T02:22:00;-3.60;99.90
8261;DHT22;64115;50.170;8.242;2023-03-01T02:24:36;-3.60;99.90
8261;DHT22;64115;50.170;8.242;2023-03-01T02:27:09;-3.60;99.90
8261;DHT22;64115;50.170;8.242;2023-03-01T02:29:38;-3.60;99.90
8261;DHT22;64115;50.170;8.242;2023-03-01T02:32:06;-3.70;99.90
8261;DHT22;64115;50.170;8.242;2023-03-01T02:34:33;-3.60;99.90
8261;DHT22;64115;50.170;8.242;2023-03-01T02:37:03;-3.50;99.90
8261;DHT22;64115;50.170;8.242;2023-03-01T02:39:33;-3.50;99.90
8261;DHT22;64115;50.170;8.242;2023-03-01T02:42:04;-3.40;99.90
8261;DHT22;64115;50.170;8.242;2023-03-01T02:44:31;-3.40;99.90
8261;DHT22;64115;50.170;8.242;2023-03-01T02:47:02;-3.40;99.90
8261;DHT22;64115;50.170;8.242;2023-03-01T02:49:31;-3.40;99.90
8261;DHT22;64115;50.170;8.242;2023-03-01T02:52:23;-3.40;99.90
8261;DHT22;64115;50.170;8.242;2023-03-01T02:54:58;-3.50;99.90
8261;DHT22;64115;50.170;8.242;2023-03-01T02:57:28;-3.50;99.90
8261;DHT22;64115;50.170;8.242;2023-03-01T02:59:57;-3.50;99.90
8261;DHT22;64115;50.170;8.242;2023-03-01T03:02:28;-3.60;99.90
8261;DHT22;64115;50.170;8.242;2023-03-01T03:05:04;-3.70;99.90
8261;DHT22;64115;50.170;8.242;2023-03-01T03:07:32;-3.80;99.90
8261;DHT22;64115;50.170;8.242;2023-03-01T03:10:00;-3.80;99.90
8261;DHT22;64115;50.170;8.242;2023-03-01T03:12:27;-3.80;99.90
8261;DHT22;64115;50.170;8.242;2023-03-01T03:14:54;-3.80;99.90
8261;DHT22;64115;50.170;8.242;2023-03-01T03:17:21;-3.80;99.90
8261;DHT22;64115;50.170;8.242;2023-03-01T03:19:49;-3.80;99.90
8261;DHT22;64115;50.170;8.242;2023-03-01T03:22:16;-3.80;99.90
8261;DHT22;64115;50.170;8.242;2023-03-01T03:24:43;-3.90;99.90
8261;DHT22;64115;50.170;8.242;2023-03-01T03:27:10;-3.80;99.90
8261;DHT22;64115;50.170;8.242;2023-03-01T03:29:37;-3.80;99.90
8261;DHT22;64115;50.170;8.242;2023-03-01T03:32:04;-3.80;99.90
8261;DHT22;64115;50.170;8.242;2023-03-01T03:34:31;-3.80;99.90
8261;DHT22;64115;50.170;8.242;2023-03-01T03:37:00;-3.90;99.90
8261;DHT22;64115;50.170;8.242;2023-03-01T03:39:27;-4.00;99.90
8261;DHT22;64115;50.170;8.242;2023-03-01T03:42:00;-4.00;99.90
8261;DHT22;64115;50.170;8.242;2023-03-01T03:44:28;-4.00;99.90
8261;DHT22;64115;50.170;8.242;2023-03-01T03:46:55;-4.00;99.90
8261;DHT22;64115;50.170;8.242;2023-03-01T03:49:22;-4.10;99.90
8261;DHT22;64115;50.170;8.242;2023-03-01T03:51:49;-4.10;99.90
8261;DHT22;64115;50.170;8.242;2023-03-01T03:54:18;-4.10;99.90
8261;DHT22;64115;50.170;8.242;2023-03-01T03:56:45;-4.20;99.90
8261;DHT22;64115;50.170;8.242;2023-03-01T03:59:12;-4.30;99.90
8261;DHT22;64115;50.170;8.242;2023-03-01T04:01:39;-4.30;99.90
8261;DHT22;64115;50.170;8.242;2023-03-01T04:04:05;-4.30;99.90
8261;DHT22;64115;50.170;8.242;2023-03-01T04:06:33;-4.30;99.90
8261;DHT22;64115;50.170;8.242;2023-03-01T04:09:00;-4.30;99.90
8261;DHT22;64115;50.170;8.242;2023-03-01T04:11:30;-4.30;99.90
8261;DHT22;64115;50.170;8.242;2023-03-01T04:13:58;-4.30;99.90
8261;DHT22;64115;50.170;8.242;2023-03-01T04:16:25;-4.20;99.90
8261;DHT22;64115;50.170;8.242;2023-03-01T04:18:53;-4.10;99.90
8261;DHT22;64115;50.170;8.242;2023-03-01T04:21:20;-4.20;99.90
8261;DHT22;64115;50.170;8.242;2023-03-01T04:23:48;-4.30;99.90
8261;DHT22;64115;50.170;8.242;2023-03-01T04:26:18;-4.50;99.90
8261;DHT22;64115;50.170;8.242;2023-03-01T04:28:46;-4.40;99.90
8261;DHT22;64115;50.170;8.242;2023-03-01T04:31:17;-4.30;99.90
8261;DHT22;64115;50.170;8.242;2023-03-01T04:33:48;-4.20;99.90
8261;DHT22;64115;50.170;8.242;2023-03-01T04:36:17;-4.20;99.90
8261;DHT22;64115;50.170;8.242;2023-03-01T04:38:45;-4.20;99.90
8261;DHT22;64115;50.170;8.242;2023-03-01T04:41:14;-4.20;99.90
8261;DHT22;64115;50.170;8.242;2023-03-01T04:43:41;-4.10;99.90
8261;DHT22;64115;50.170;8.242;2023-03-01T04:46:12;-4.10;99.90
8261;DHT22;64115;50.170;8.242;2023-03-01T04:48:40;-4.10;99.90
8261;DHT22;64115;50.170;8.242;2023-03-01T04:51:08;-4.10;99.90
8261;DHT22;64115;50.170;8.242;2023-03-01T04:53:35;-4.00;99.90
8261;DHT22;64115;50.170;8.242;2023-03-01T04:56:03;-4.00;99.90
8261;DHT22;64115;50.170;8.242;2023-03-01T04:58:30;-4.00;99.90
8261;DHT22;64115;50.170;8.242;2023-03-01T05:00:57;-4.00;99.90
8261;DHT22;64115;50.170;8.242;2023-03-01T05:03:26;-4.00;99.90
8261;DHT22;64115;50.170;8.242;2023-03-01T05:05:53;-4.00;99.90
8261;DHT22;64115;50.170;8.242;2023-03-01T05:08:20;-4.10;99.90
8261;DHT22;64115;50.170;8.242;2023-03-01T05:10:50;-4.10;99.90
8261;DHT22;64115;50.170;8.242;2023-03-01T05:13:18;-4.10;99.90
8261;DHT22;64115;50.170;8.242;2023-03-01T05:15:49;-4.10;99.90
8261;DHT22;64115;50.170;8.242;2023-03-01T05:18:20;-4.10;99.90
8261;DHT22;64115;50.170;8.242;2023-03-01T05:20:52;-4.10;99.90
8261;DHT22;64115;50.170;8.242;2023-03-01T05:23:21;-4.10;99.90
8261;DHT22;64115;50.170;8.242;2023-03-01T05:25:48;-4.10;99.90
8261;DHT22;64115;50.170;8.242;2023-03-01T05:28:18;-4.10;99.90
8261;DHT22;64115;50.170;8.242;2023-03-01T05:30:45;-4.10;99.90
8261;DHT22;64115;50.170;8.242;2023-03-01T05:33:12;-4.00;99.90
8261;DHT22;64115;50.170;8.242;2023-03-01T05:35:40;-4.00;99.90
8261;DHT22;64115;50.170;8.242;2023-03-01T05:38:09;-3.90;99.90
8261;DHT22;64115;50.170;8.242;2023-03-01T05:40:38;-3.90;99.90
8261;DHT22;64115;50.170;8.242;2023-03-01T05:43:06;-4.00;99.90
8261;DHT22;64115;50.170;8.242;2023-03-01T05:45:36;-4.00;99.90
8261;DHT22;64115;50.170;8.242;2023-03-01T05:48:04;-3.90;99.90
8261;DHT22;64115;50.170;8.242;2023-03-01T05:50:33;-3.90;99.90
8261;DHT22;64115;50.170;8.242;2023-03-01T05:53:02;-4.00;99.90
8261;DHT22;64115;50.170;8.242;2023-03-01T05:55:32;-4.20;99.90
8261;DHT22;64115;50.170;8.242;2023-03-01T05:57:59;-4.20;99.90
8261;DHT22;64115;50.170;8.242;2023-03-01T06:00:27;-4.20;99.90
8261;DHT22;64115;50.170;8.242;2023-03-01T06:02:55;-4.20;99.90
8261;DHT22;64115;50.170;8.242;2023-03-01T06:05:23;-4.20;99.90
8261;DHT22;64115;50.170;8.242;2023-03-01T06:07:50;-4.10;99.90
8261;DHT22;64115;50.170;8.242;2023-03-01T06:10:20;-4.20;99.90
8261;DHT22;64115;50.170;8.242;2023-03-01T06:12:48;-4.20;99.90
8261;DHT22;64115;50.170;8.242;2023-03-01T06:15:16;-4.10;99.90
8261;DHT22;64115;50.170;8.242;2023-03-01T06:17:44;-4.10;99.90
8261;DHT22;64115;50.170;8.242;2023-03-01T06:20:14;-4.10;99.90
8261;DHT22;64115;50.170;8.242;2023-03-01T06:22:42;-4.10;99.90
8261;DHT22;64115;50.170;8.242;2023-03-01T06:25:10;-4.00;99.90
8261;DHT22;64115;50.170;8.242;2023-03-01T06:27:38;-3.90;99.90
8261;DHT22;64115;50.170;8.242;2023-03-01T06:30:09;-3.80;99.90
8261;DHT22;64115;50.170;8.242;2023-03-01T06:32:36;-3.80;99.90
8261;DHT22;64115;50.170;8.242;2023-03-01T06:35:08;-3.80;99.90
8261;DHT22;64115;50.170;8.242;2023-03-01T06:37:36;-3.70;99.90
8261;DHT22;64115;50.170;8.242;2023-03-01T06:40:04;-3.60;99.90
8261;DHT22;64115;50.170;8.242;2023-03-01T06:42:34;-3.60;99.90
8261;DHT22;64115;50.170;8.242;2023-03-01T06:45:01;-3.50;99.90
8261;DHT22;64115;50.170;8.242;2023-03-01T06:47:29;-3.40;99.90
8261;DHT22;64115;50.170;8.242;2023-03-01T06:49:56;-3.40;99.90
8261;DHT22;64115;50.170;8.242;2023-03-01T06:52:23;-3.30;99.90
8261;DHT22;64115;50.170;8.242;2023-03-01T06:54:50;-3.20;99.90
8261;DHT22;64115;50.170;8.242;2023-03-01T06:57:17;-3.20;99.90
8261;DHT22;64115;50.170;8.242;2023-03-01T06:59:44;-3.10;99.90
8261;DHT22;64115;50.170;8.242;2023-03-01T07:02:11;-3.10;99.90
8261;DHT22;64115;50.170;8.242;2023-03-01T07:04:40;-3.00;99.90
8261;DHT22;64115;50.170;8.242;2023-03-01T07:07:10;-2.90;99.90
8261;DHT22;64115;50.170;8.242;2023-03-01T07:09:37;-2.80;99.90
8261;DHT22;64115;50.170;8.242;2023-03-01T07:12:05;-2.80;99.90
8261;DHT22;64115;50.170;8.242;2023-03-01T07:14:32;-2.70;99.90
8261;DHT22;64115;50.170;8.242;2023-03-01T07:16:59;-2.60;99.90
8261;DHT22;64115;50.170;8.242;2023-03-01T07:19:26;-2.50;99.90
8261;DHT22;64115;50.170;8.242;2023-03-01T07:21:55;-2.50;99.90
8261;DHT22;64115;50.170;8.242;2023-03-01T07:24:22;-2.40;99.90
8261;DHT22;64115;50.170;8.242;2023-03-01T07:26:49;-2.20;99.90
8261;DHT22;64115;50.170;8.242;2023-03-01T07:29:17;-2.10;99.90
8261;DHT22;64115;50.170;8.242;2023-03-01T07:31:44;-1.90;99.90
8261;DHT22;64115;50.170;8.242;2023-03-01T07:34:11;-1.70;99.90
8261;DHT22;64115;50.170;8.242;2023-03-01T07:36:38;-1.60;99.90
8261;DHT22;64115;50.170;8.242;2023-03-01T07:39:10;-1.50;99.90
8261;DHT22;64115;50.170;8.242;2023-03-01T07:41:37;-1.50;99.90
8261;DHT22;64115;50.170;8.242;2023-03-01T07:44:04;-1.40;99.90
8261;DHT22;64115;50.170;8.242;2023-03-01T07:46:32;-1.30;99.90
8261;DHT22;64115;50.170;8.242;2023-03-01T07:48:58;-1.20;99.90
8261;DHT22;64115;50.170;8.242;2023-03-01T07:51:25;-1.10;99.90
8261;DHT22;64115;50.170;8.242;2023-03-01T07:53:53;-1.00;99.90
8261;DHT22;64115;50.170;8.242;2023-03-01T07:56:21;-1.00;99.90
8261;DHT22;64115;50.170;8.242;2023-03-01T07:58:48;-0.90;99.90
8261;DHT22;64115;50.170;8.242;2023-03-01T08:01:18;-0.90;99.90
8261;DHT22;64115;50.170;8.242;2023-03-01T08:03:46;-0.80;99.90
8261;DHT22;64115;50.170;8.242;2023-03-01T08:06:14;-0.80;99.90
8261;DHT22;64115;50.170;8.242;2023-03-01T08:08:42;-0.80;99.90
8261;DHT22;64115;50.170;8.242;2023-03-01T08:11:11;-0.70;99.90
8261;DHT22;64115;50.170;8.242;2023-03-01T08:13:40;-0.60;99.90
8261;DHT22;64115;50.170;8.242;2023-03-01T08:16:10;-0.60;99.90
8261;DHT22;64115;50.170;8.242;2023-03-01T08:18:37;-0.60;99.90
8261;DHT22;64115;50.170;8.242;2023-03-01T08:21:05;-0.50;99.90
8261;DHT22;64115;50.170;8.242;2023-03-01T08:23:33;-0.40;99.90
8261;DHT22;64115;50.170;8.242;2023-03-01T08:26:05;-0.30;99.90
8261;DHT22;64115;50.170;8.242;2023-03-01T08:28:32;-0.30;99.90
8261;DHT22;64115;50.170;8.242;2023-03-01T08:31:01;-0.20;99.90
8261;DHT22;64115;50.170;8.242;2023-03-01T08:33:28;-0.20;99.90
8261;DHT22;64115;50.170;8.242;2023-03-01T08:36:03;-0.10;99.90
8261;DHT22;64115;50.170;8.242;2023-03-01T08:38:30;-0.10;99.90
8261;DHT22;64115;50.170;8.242;2023-03-01T08:40:59;0.00;99.90
8261;DHT22;64115;50.170;8.242;2023-03-01T08:43:27;0.20;99.90
8261;DHT22;64115;50.170;8.242;2023-03-01T08:45:54;0.30;99.90
8261;DHT22;64115;50.170;8.242;2023-03-01T08:48:23;0.30;99.90
8261;DHT22;64115;50.170;8.242;2023-03-01T08:50:50;0.50;99.90
8261;DHT22;64115;50.170;8.242;2023-03-01T08:53:17;0.60;99.90
8261;DHT22;64115;50.170;8.242;2023-03-01T08:55:44;0.60;99.90
8261;DHT22;64115;50.170;8.242;2023-03-01T08:58:11;0.70;99.90
8261;DHT22;64115;50.170;8.242;2023-03-01T09:00:38;0.80;99.90
8261;DHT22;64115;50.170;8.242;2023-03-01T09:03:05;0.90;99.90
8261;DHT22;64115;50.170;8.242;2023-03-01T09:05:34;0.90;99.90
8261;DHT22;64115;50.170;8.242;2023-03-01T09:08:02;0.80;99.90
8261;DHT22;64115;50.170;8.242;2023-03-01T09:10:29;0.80;99.90
8261;DHT22;64115;50.170;8.242;2023-03-01T09:12:56;0.90;99.90
8261;DHT22;64115;50.170;8.242;2023-03-01T09:15:23;1.10;99.90
8261;DHT22;64115;50.170;8.242;2023-03-01T09:17:50;1.10;99.90
8261;DHT22;64115;50.170;8.242;2023-03-01T09:20:18;1.10;99.90
8261;DHT22;64115;50.170;8.242;2023-03-01T09:22:46;1.30;99.90
8261;DHT22;64115;50.170;8.242;2023-03-01T09:25:13;1.50;99.90
8261;DHT22;64115;50.170;8.242;2023-03-01T09:27:40;1.60;99.90
8261;DHT22;64115;50.170;8.242;2023-03-01T09:30:09;1.60;99.90
8261;DHT22;64115;50.170;8.242;2023-03-01T09:32:37;1.50;99.90
8261;DHT22;64115;50.170;8.242;2023-03-01T09:35:08;1.60;99.90
8261;DHT22;64115;50.170;8.242;2023-03-01T09:37:35;1.50;99.90
8261;DHT22;64115;50.170;8.242;2023-03-01T09:40:06;1.50;99.90
8261;DHT22;64115;50.170;8.242;2023-03-01T09:42:35;1.60;99.90
8261;DHT22;64115;50.170;8.242;2023-03-01T09:45:05;1.70;99.90
8261;DHT22;64115;50.170;8.242;2023-03-01T09:47:34;1.80;99.90
8261;DHT22;64115;50.170;8.242;2023-03-01T09:50:05;1.90;99.90
8261;DHT22;64115;50.170;8.242;2023-03-01T09:52:38;1.90;99.90
8261;DHT22;64115;50.170;8.242;2023-03-01T09:55:11;2.00;99.90
8261;DHT22;64115;50.170;8.242;2023-03-01T09:57:46;2.00;99.90
8261;DHT22;64115;50.170;8.242;2023-03-01T10:00:30;2.10;99.90
8261;DHT22;64115;50.170;8.242;2023-03-01T10:03:07;2.10;99.90
8261;DHT22;64115;50.170;8.242;2023-03-01T10:05:43;2.10;99.90
8261;DHT22;64115;50.170;8.242;2023-03-01T10:08:34;2.20;99.90
8261;DHT22;64115;50.170;8.242;2023-03-01T10:11:21;2.00;99.90
8261;DHT22;64115;50.170;8.242;2023-03-01T10:13:55;2.00;99.90
8261;DHT22;64115;50.170;8.242;2023-03-01T10:16:28;1.90;99.90
8261;DHT22;64115;50.170;8.242;2023-03-01T10:19:01;1.80;99.90
8261;DHT22;64115;50.170;8.242;2023-03-01T10:21:30;1.90;99.90
8261;DHT22;64115;50.170;8.242;2023-03-01T10:24:04;1.90;99.90
8261;DHT22;64115;50.170;8.242;2023-03-01T10:26:44;2.10;99.90
8261;DHT22;64115;50.170;8.242;2023-03-01T10:29:14;2.00;99.90
8261;DHT22;64115;50.170;8.242;2023-03-01T10:31:43;2.10;99.90
8261;DHT22;64115;50.170;8.242;2023-03-01T10:34:13;2.20;99.90
8261;DHT22;64115;50.170;8.242;2023-03-01T10:36:47;2.30;99.90
8261;DHT22;64115;50.170;8.242;2023-03-01T10:39:18;2.30;99.90
8261;DHT22;64115;50.170;8.242;2023-03-01T10:41:58;2.40;99.90
8261;DHT22;64115;50.170;8.242;2023-03-01T10:44:41;2.60;99.90
8261;DHT22;64115;50.170;8.242;2023-03-01T10:47:15;2.60;99.90
8261;DHT22;64115;50.170;8.242;2023-03-01T10:49:57;2.60;99.90
8261;DHT22;64115;50.170;8.242;2023-03-01T10:52:33;2.60;99.90
8261;DHT22;64115;50.170;8.242;2023-03-01T10:55:04;2.70;99.90
8261;DHT22;64115;50.170;8.242;2023-03-01T10:57:36;2.90;99.90
8261;DHT22;64115;50.170;8.242;2023-03-01T11:00:22;2.90;99.90
8261;DHT22;64115;50.170;8.242;2023-03-01T11:03:01;2.80;99.90
8261;DHT22;64115;50.170;8.242;2023-03-01T11:05:29;2.70;99.90
8261;DHT22;64115;50.170;8.242;2023-03-01T11:08:00;2.50;99.90
8261;DHT22;64115;50.170;8.242;2023-03-01T11:10:30;2.70;99.90
8261;DHT22;64115;50.170;8.242;2023-03-01T11:13:14;2.80;99.90
8261;DHT22;64115;50.170;8.242;2023-03-01T11:15:42;2.90;99.90
8261;DHT22;64115;50.170;8.242;2023-03-01T11:18:19;3.00;99.90
8261;DHT22;64115;50.170;8.242;2023-03-01T11:20:48;3.10;99.90
8261;DHT22;64115;50.170;8.242;2023-03-01T11:23:16;3.10;99.90
8261;DHT22;64115;50.170;8.242;2023-03-01T11:25:45;3.10;99.90
8261;DHT22;64115;50.170;8.242;2023-03-01T11:28:17;3.20;99.90
8261;DHT22;64115;50.170;8.242;2023-03-01T11:30:50;3.20;99.90
8261;DHT22;64115;50.170;8.242;2023-03-01T11:33:29;3.00;99.90
8261;DHT22;64115;50.170;8.242;2023-03-01T11:36:24;3.00;99.90
8261;DHT22;64115;50.170;8.242;2023-03-01T11:38:57;3.20;99.90
8261;DHT22;64115;50.170;8.242;2023-03-01T11:41:31;3.40;99.90
8261;DHT22;64115;50.170;8.242;2023-03-01T11:44:05;3.30;99.90
8261;DHT22;64115;50.170;8.242;2023-03-01T11:46:54;3.40;99.90
8261;DHT22;64115;50.170;8.242;2023-03-01T11:49:41;3.50;99.90
8261;DHT22;64115;50.170;8.242;2023-03-01T11:52:19;3.30;99.90
8261;DHT22;64115;50.170;8.242;2023-03-01T11:54:56;3.60;99.90
8261;DHT22;64115;50.170;8.242;2023-03-01T11:57:39;3.70;99.90
8261;DHT22;64115;50.170;8.242;2023-03-01T12:00:20;3.70;99.90
8261;DHT22;64115;50.170;8.242;2023-03-01T12:03:10;3.50;99.90
8261;DHT22;64115;50.170;8.242;2023-03-01T12:06:09;3.60;99.90
8261;DHT22;64115;50.170;8.242;2023-03-01T12:08:42;3.60;99.90
8261;DHT22;64115;50.170;8.242;2023-03-01T12:11:26;3.80;99.90
8261;DHT22;64115;50.170;8.242;2023-03-01T12:14:44;3.80;99.90
8261;DHT22;64115;50.170;8.242;2023-03-01T12:17:43;3.80;99.90
8261;DHT22;64115;50.170;8.242;2023-03-01T12:20:23;3.90;99.90
8261;DHT22;64115;50.170;8.242;2023-03-01T12:23:13;4.10;99.90
8261;DHT22;64115;50.170;8.242;2023-03-01T12:25:46;4.20;99.90
8261;DHT22;64115;50.170;8.242;2023-03-01T12:28:23;4.10;99.90
8261;DHT22;64115;50.170;8.242;2023-03-01T12:34:01;4.20;99.90
8261;DHT22;64115;50.170;8.242;2023-03-01T12:36:55;4.20;99.90
8261;DHT22;64115;50.170;8.242;2023-03-01T12:39:36;4.30;99.90
8261;DHT22;64115;50.170;8.242;2023-03-01T12:42:12;4.40;99.90
8261;DHT22;64115;50.170;8.242;2023-03-01T12:44:56;4.30;99.90
8261;DHT22;64115;50.170;8.242;2023-03-01T12:50:29;4.40;99.90
8261;DHT22;64115;50.170;8.242;2023-03-01T12:53:03;4.40;99.90
8261;DHT22;64115;50.170;8.242;2023-03-01T12:55:32;4.50;99.90
8261;DHT22;64115;50.170;8.242;2023-03-01T12:58:05;4.30;99.90
8261;DHT22;64115;50.170;8.242;2023-03-01T13:00:39;4.40;99.90
8261;DHT22;64115;50.170;8.242;2023-03-01T13:03:15;4.50;99.90
8261;DHT22;64115;50.170;8.242;2023-03-01T13:05:59;4.70;99.90
8261;DHT22;64115;50.170;8.242;2023-03-01T13:08:33;4.70;99.90
8261;DHT22;64115;50.170;8.242;2023-03-01T13:11:04;4.60;99.90
8261;DHT22;64115;50.170;8.242;2023-03-01T13:13:32;4.60;99.90
8261;DHT22;64115;50.170;8.242;2023-03-01T13:16:21;4.50;99.90
8261;DHT22;64115;50.170;8.242;2023-03-01T13:18:49;4.50;99.90
8261;DHT22;64115;50.170;8.242;2023-03-01T13:21:30;4.60;99.90
8261;DHT22;64115;50.170;8.242;2023-03-01T13:23:57;4.50;99.90
8261;DHT22;64115;50.170;8.242;2023-03-01T13:26:24;4.50;99.90
8261;DHT22;64115;50.170;8.242;2023-03-01T13:28:53;4.60;99.90
8261;DHT22;64115;50.170;8.242;2023-03-01T13:31:56;4.60;99.90
8261;DHT22;64115;50.170;8.242;2023-03-01T13:34:42;4.50;99.90
8261;DHT22;64115;50.170;8.242;2023-03-01T13:37:18;4.60;99.90
8261;DHT22;64115;50.170;8.242;2023-03-01T13:39:45;4.60;99.90
8261;DHT22;64115;50.170;8.242;2023-03-01T13:42:35;4.60;99.90
8261;DHT22;64115;50.170;8.242;2023-03-01T13:45:05;4.60;99.90
8261;DHT22;64115;50.170;8.242;2023-03-01T13:47:41;4.60;99.50
8261;DHT22;64115;50.170;8.242;2023-03-01T13:50:17;4.70;99.40
8261;DHT22;64115;50.170;8.242;2023-03-01T13:52:50;4.80;99.90
8261;DHT22;64115;50.170;8.242;2023-03-01T13:55:23;4.80;99.90
8261;DHT22;64115;50.170;8.242;2023-03-01T13:57:55;4.80;99.90
8261;DHT22;64115;50.170;8.242;2023-03-01T14:00:38;4.70;99.90
8261;DHT22;64115;50.170;8.242;2023-03-01T14:03:11;4.70;99.90
8261;DHT22;64115;50.170;8.242;2023-03-01T14:05:40;4.60;99.90
8261;DHT22;64115;50.170;8.242;2023-03-01T14:08:21;4.60;99.90
8261;DHT22;64115;50.170;8.242;2023-03-01T14:11:05;4.60;99.90
8261;DHT22;64115;50.170;8.242;2023-03-01T14:13:48;4.70;99.90
8261;DHT22;64115;50.170;8.242;2023-03-01T14:16:27;4.70;99.90
8261;DHT22;64115;50.170;8.242;2023-03-01T14:19:09;4.70;99.90
8261;DHT22;64115;50.170;8.242;2023-03-01T14:21:39;4.70;99.90
8261;DHT22;64115;50.170;8.242;2023-03-01T14:24:17;4.60;99.90
8261;DHT22;64115;50.170;8.242;2023-03-01T14:26:44;4.40;99.90
8261;DHT22;64115;50.170;8.242;2023-03-01T14:29:24;4.30;99.90
8261;DHT22;64115;50.170;8.242;2023-03-01T14:31:51;4.30;99.90
8261;DHT22;64115;50.170;8.242;2023-03-01T14:34:20;4.40;99.90
8261;DHT22;64115;50.170;8.242;2023-03-01T14:36:48;4.40;99.90
8261;DHT22;64115;50.170;8.242;2023-03-01T14:39:24;4.30;99.90
8261;DHT22;64115;50.170;8.242;2023-03-01T14:41:52;4.30;99.90
8261;DHT22;64115;50.170;8.242;2023-03-01T14:44:22;4.40;99.90
8261;DHT22;64115;50.170;8.242;2023-03-01T14:46:53;4.40;99.90
8261;DHT22;64115;50.170;8.242;2023-03-01T14:49:23;4.40;99.90
8261;DHT22;64115;50.170;8.242;2023-03-01T14:51:53;4.30;99.90
8261;DHT22;64115;50.170;8.242;2023-03-01T14:54:25;4.30;99.90
8261;DHT22;64115;50.170;8.242;2023-03-01T14:56:57;4.20;99.90
8261;DHT22;64115;50.170;8.242;2023-03-01T14:59:24;4.20;99.90
8261;DHT22;64115;50.170;8.242;2023-03-01T15:01:54;4.10;99.90
8261;DHT22;64115;50.170;8.242;2023-03-01T15:04:22;4.10;99.90
8261;DHT22;64115;50.170;8.242;2023-03-01T15:10:40;4.00;99.90
8261;DHT22;64115;50.170;8.242;2023-03-01T15:13:23;4.00;99.90
8261;DHT22;64115;50.170;8.242;2023-03-01T15:19:18;3.90;99.90
8261;DHT22;64115;50.170;8.242;2023-03-01T15:21:48;3.80;99.90
8261;DHT22;64115;50.170;8.242;2023-03-01T15:24:18;3.90;99.90
8261;DHT22;64115;50.170;8.242;2023-03-01T15:26:50;3.80;99.90
8261;DHT22;64115;50.170;8.242;2023-03-01T15:29:22;3.80;99.90
8261;DHT22;64115;50.170;8.242;2023-03-01T15:31:57;3.70;99.90
8261;DHT22;64115;50.170;8.242;2023-03-01T15:34:26;3.80;99.90
8261;DHT22;64115;50.170;8.242;2023-03-01T15:36:55;3.70;99.90
8261;DHT22;64115;50.170;8.242;2023-03-01T15:39:34;3.70;99.90
8261;DHT22;64115;50.170;8.242;2023-03-01T15:42:07;3.60;99.90
8261;DHT22;64115;50.170;8.242;2023-03-01T15:44:37;3.60;99.90
8261;DHT22;64115;50.170;8.242;2023-03-01T15:47:23;3.50;99.90
8261;DHT22;64115;50.170;8.242;2023-03-01T15:49:52;3.50;99.90
8261;DHT22;64115;50.170;8.242;2023-03-01T15:52:23;3.40;99.90
8261;DHT22;64115;50.170;8.242;2023-03-01T15:54:55;3.40;99.90
8261;DHT22;64115;50.170;8.242;2023-03-01T15:57:24;3.40;99.90
8261;DHT22;64115;50.170;8.242;2023-03-01T15:59:51;3.40;99.90
8261;DHT22;64115;50.170;8.242;2023-03-01T16:02:18;3.30;99.90
8261;DHT22;64115;50.170;8.242;2023-03-01T16:04:46;3.30;99.90
8261;DHT22;64115;50.170;8.242;2023-03-01T16:07:14;3.20;99.90
8261;DHT22;64115;50.170;8.242;2023-03-01T16:09:42;3.20;99.90
8261;DHT22;64115;50.170;8.242;2023-03-01T16:12:14;3.10;99.90
8261;DHT22;64115;50.170;8.242;2023-03-01T16:14:43;3.10;99.90
8261;DHT22;64115;50.170;8.242;2023-03-01T16:17:10;3.10;99.90
8261;DHT22;64115;50.170;8.242;2023-03-01T16:19:37;2.90;99.90
8261;DHT22;64115;50.170;8.242;2023-03-01T16:22:04;2.90;99.90
8261;DHT22;64115;50.170;8.242;2023-03-01T16:24:31;2.90;99.90
8261;DHT22;64115;50.170;8.242;2023-03-01T16:26:58;2.90;99.90
8261;DHT22;64115;50.170;8.242;2023-03-01T16:29:25;2.90;99.90